createdAt,value
2019-04-22T00:00:51.453Z,97591.25
2019-04-22T00:03:32.551Z,97586.07
2019-04-22T00:06:12.877Z,97587.88
2019-04-22T00:08:56.139Z,97584.25
2019-04-22T00:11:29.191Z,97586.61
2019-04-22T00:16:43.610Z,97579.21
2019-04-22T00:19:24.360Z,97570.99
2019-04-22T00:21:40.426Z,97570.80
2019-04-22T00:24:10.735Z,97572.52
2019-04-22T00:26:44.455Z,97568.58
2019-04-22T00:29:39.481Z,97568.91
2019-04-22T00:31:51.711Z,97564.72
2019-04-22T00:34:16.746Z,97559.70
2019-04-22T00:36:55.576Z,97564.11
2019-04-22T00:39:31.650Z,97556.32
2019-04-22T00:42:01.861Z,97556.89
2019-04-22T00:44:35.449Z,97556.97
2019-04-22T00:47:07.370Z,97553.70
2019-04-22T00:54:37.717Z,97546.41
2019-04-22T00:57:12.072Z,97539.03
2019-04-22T00:59:40.500Z,97541.52
2019-04-22T01:02:13.406Z,97541.06
2019-04-22T01:04:51.775Z,97537.08
2019-04-22T01:07:17.690Z,97542.43
2019-04-22T01:09:55.873Z,97538.57
2019-04-22T01:12:28.553Z,97539.20
2019-04-22T01:14:55.343Z,97539.63
2019-04-22T01:17:25.597Z,97535.45
2019-04-22T01:22:27.070Z,97525.07
2019-04-22T01:24:59.288Z,97527.39
2019-04-22T01:27:32.416Z,97524.47
2019-04-22T01:29:59.668Z,97524.71
2019-04-22T01:32:28.714Z,97525.02
2019-04-22T01:35:05.942Z,97518.73
2019-04-22T01:37:46.057Z,97515.92
2019-04-22T01:40:25.338Z,97516.46
2019-04-22T01:43:05.521Z,97515.80
2019-04-22T01:45:25.830Z,97518.09
2019-04-22T01:47:55.163Z,97512.84
2019-04-22T01:50:33.842Z,97511.58
2019-04-22T01:53:06.778Z,97512.80
2019-04-22T01:55:41.747Z,97510.50
2019-04-22T01:58:00.270Z,97513.05
2019-04-22T02:00:39.964Z,97508.25
2019-04-22T02:03:10.312Z,97509.64
2019-04-22T02:05:44.222Z,97503.18
2019-04-22T02:08:28.399Z,97504.62
2019-04-22T02:10:49.231Z,97505.12
2019-04-22T02:13:25.207Z,97492.42
2019-04-22T02:15:52.486Z,97489.08
2019-04-22T02:18:37.805Z,97490.64
2019-04-22T02:20:54.522Z,97490.06
2019-04-22T02:36:27.985Z,97473.42
2019-04-22T02:41:26.317Z,97463.36
2019-04-22T02:59:12.272Z,97457.83
2019-04-22T03:04:09.351Z,97447.68
2019-04-22T03:09:19.011Z,97441.38
2019-04-22T03:12:00.904Z,97440.87
2019-04-22T03:16:50.358Z,97435.47
2019-04-22T03:19:43.388Z,97438.87
2019-04-22T03:22:00.025Z,97434.28
2019-04-22T03:24:25.757Z,97430.27
2019-04-22T03:27:01.042Z,97428.50
2019-04-22T03:40:22.395Z,97412.54
2019-04-22T03:53:06.210Z,97406.36
2019-04-22T03:58:01.889Z,97409.15
2019-04-22T04:00:47.811Z,97400.75
2019-04-22T04:10:42.064Z,97398.59
2019-04-22T04:15:34.359Z,97390.47
2019-04-22T04:18:09.176Z,97395.21
2019-04-22T04:21:01.096Z,97391.05
2019-04-22T04:25:52.532Z,97391.98
2019-04-22T04:28:43.832Z,97391.64
2019-04-22T04:31:09.826Z,97394.13
2019-04-22T04:33:36.246Z,97389.81
2019-04-22T04:36:03.524Z,97396.48
2019-04-22T04:38:38.802Z,97395.94
2019-04-22T04:41:10.168Z,97387.64
2019-04-22T04:51:16.109Z,97375.29
2019-04-22T04:56:33.968Z,97364.59
2019-04-22T04:58:56.488Z,97367.58
2019-04-22T05:04:04.926Z,97297.19
2019-04-22T05:06:22.024Z,97349.24
2019-04-22T05:11:32.200Z,97358.73
2019-04-22T05:14:03.774Z,97359.06
2019-04-22T05:19:02.518Z,97360.19
2019-04-22T05:21:21.842Z,97353.24
2019-04-22T05:24:05.545Z,97354.72
2019-04-22T05:26:34.211Z,97358.22
2019-04-22T05:29:05.411Z,97354.40
2019-04-22T05:31:37.559Z,97345.78
2019-04-22T05:34:09.584Z,97351.61
2019-04-22T05:36:41.286Z,97350.27
2019-04-22T05:39:11.477Z,97352.95
2019-04-22T05:41:48.778Z,97360.39
2019-04-22T05:44:22.252Z,97352.52
2019-04-22T05:46:45.266Z,97349.55
2019-04-22T05:49:25.749Z,97348.21
2019-04-22T05:51:54.919Z,97350.25
2019-04-22T05:54:27.340Z,97348.78
2019-04-22T05:57:06.622Z,97346.64
2019-04-22T05:59:36.149Z,97353.77
2019-04-22T06:02:05.378Z,97348.41
2019-04-22T06:04:43.203Z,97344.91
2019-04-22T06:07:06.591Z,97346.11
2019-04-22T06:09:46.782Z,97342.07
2019-04-22T06:12:14.782Z,97338.64
2019-04-22T06:14:47.910Z,97336.59
2019-04-22T06:17:24.658Z,97329.11
2019-04-22T06:19:50.827Z,97332.41
2019-04-22T06:25:01.007Z,97330.59
2019-04-22T06:27:39.017Z,97330.14
2019-04-22T06:30:11.138Z,97326.03
2019-04-22T06:32:42.215Z,97324.98
2019-04-22T06:35:23.728Z,97322.09
2019-04-22T06:37:54.734Z,97331.10
2019-04-22T06:40:20.794Z,97318.39
2019-04-22T06:43:01.435Z,97316.05
2019-04-22T06:45:24.981Z,97314.19
2019-04-22T06:53:02.705Z,97313.21
2019-04-22T06:55:41.366Z,97308.19
2019-04-22T06:58:10.051Z,97309.53
2019-04-22T07:00:42.878Z,97307.80
2019-04-22T07:06:00.233Z,97298.53
2019-04-22T07:13:23.499Z,97299.03
2019-04-22T07:18:33.107Z,97284.53
2019-04-22T07:21:01.451Z,97287.53
2019-04-22T07:23:34.933Z,97281.46
2019-04-22T07:26:04.362Z,97277.81
2019-04-22T07:28:29.127Z,97271.09
2019-04-22T07:31:12.961Z,97276.33
2019-04-22T07:33:48.796Z,97274.85
2019-04-22T07:36:53.498Z,97268.90
2019-04-22T07:38:43.853Z,97268.05
2019-04-22T07:41:14.637Z,97269.50
2019-04-22T07:44:10.234Z,97259.09
2019-04-22T07:46:18.738Z,97250.48
2019-04-22T07:48:57.755Z,97249.50
2019-04-22T07:51:32.623Z,97243.53
2019-04-22T07:54:01.278Z,97245.58
2019-04-22T07:56:36.703Z,97245.36
2019-04-22T07:59:09.581Z,97241.50
2019-04-22T08:01:38.028Z,97244.70
2019-04-22T08:04:24.420Z,97235.30
2019-04-22T08:06:49.426Z,97241.11
2019-04-22T08:09:19.637Z,97237.05
2019-04-22T08:11:51.212Z,97231.39
2019-04-22T08:14:24.182Z,97229.44
2019-04-22T08:17:01.500Z,97232.38
2019-04-22T08:21:58.120Z,97220.11
2019-04-22T08:24:35.963Z,97215.94
2019-04-22T08:27:04.835Z,97212.34
2019-04-22T08:32:08.678Z,97214.20
2019-04-22T08:34:38.847Z,97208.14
2019-04-22T08:39:43.224Z,97204.83
2019-04-22T08:42:21.618Z,97201.25
2019-04-22T08:47:29.082Z,97194.13
2019-04-22T08:50:06.029Z,97185.97
2019-04-22T08:52:30.285Z,97189.84
2019-04-22T08:55:07.793Z,97188.29
2019-04-22T09:00:03.587Z,97179.69
2019-04-22T09:02:41.496Z,97174.67
2019-04-22T09:05:11.946Z,97172.98
2019-04-22T09:07:36.838Z,97165.13
2019-04-22T09:10:13.024Z,97166.92
2019-04-22T09:12:56.878Z,97161.89
2019-04-22T09:15:18.520Z,97159.59
2019-04-22T09:17:55.852Z,97159.40
2019-04-22T09:20:28.593Z,97149.98
2019-04-22T09:23:07.605Z,97139.52
2019-04-22T09:25:34.324Z,97136.91
2019-04-22T09:28:10.449Z,97135.89
2019-04-22T09:33:14.060Z,97131.17
2019-04-22T09:36:00.067Z,97122.71
2019-04-22T09:41:10.318Z,97121.70
2019-04-22T09:43:24.388Z,97125.09
2019-04-22T09:45:53.238Z,97117.41
2019-04-22T09:48:33.644Z,97113.61
2019-04-22T09:51:00.473Z,97109.96
2019-04-22T09:53:36.538Z,97109.31
2019-04-22T09:56:08.055Z,97094.42
2019-04-22T09:58:40.122Z,97089.11
2019-04-22T10:01:20.297Z,97091.47
2019-04-22T10:03:45.225Z,97088.34
2019-04-22T10:06:23.278Z,97078.43
2019-04-22T10:11:22.800Z,97076.35
2019-04-22T10:13:54.198Z,97076.86
2019-04-22T10:16:31.593Z,97067.37
2019-04-22T10:19:00.936Z,97060.00
2019-04-22T10:24:03.437Z,97048.44
2019-04-22T10:26:39.657Z,97049.81
2019-04-22T10:29:11.020Z,97046.81
2019-04-22T10:31:49.842Z,97050.16
2019-04-22T10:34:11.537Z,97034.99
2019-04-22T10:36:28.160Z,97039.14
2019-04-22T10:38:58.542Z,97019.23
2019-04-22T10:41:30.495Z,97023.46
2019-04-22T10:44:01.345Z,97019.04
2019-04-22T10:46:30.755Z,97008.05
2019-04-22T10:49:04.140Z,97011.30
2019-04-22T10:51:34.879Z,97010.05
2019-04-22T10:54:05.342Z,96996.39
2019-04-22T10:56:36.972Z,97002.48
2019-04-22T10:59:08.783Z,96998.57
2019-04-22T11:01:40.403Z,96986.92
2019-04-22T11:04:11.185Z,96985.63
2019-04-22T11:06:52.333Z,96989.81
2019-04-22T11:09:16.298Z,96982.52
2019-04-22T11:11:56.607Z,96983.63
2019-04-22T11:14:18.976Z,96985.44
2019-04-22T11:16:53.379Z,96983.80
2019-04-22T11:19:24.040Z,96968.48
2019-04-22T11:22:05.054Z,96978.20
2019-04-22T11:24:26.654Z,96974.92
2019-04-22T11:27:01.163Z,96972.02
2019-04-22T11:29:31.817Z,96955.45
2019-04-22T11:32:06.333Z,96882.93
2019-04-22T11:34:37.477Z,96958.61
2019-04-22T11:37:06.553Z,96972.16
2019-04-22T11:39:38.594Z,96954.96
2019-04-22T11:42:07.927Z,96956.13
2019-04-22T11:44:37.392Z,96952.36
2019-04-22T11:47:09.676Z,96947.73
2019-04-22T11:49:41.644Z,96933.98
2019-04-22T11:52:14.814Z,96928.84
2019-04-22T11:54:46.730Z,96940.81
2019-04-22T11:57:19.138Z,96931.40
2019-04-22T11:59:51.066Z,96936.45
2019-04-22T12:02:25.400Z,96927.98
2019-04-22T12:04:56.178Z,96941.80
2019-04-22T12:07:29.635Z,96947.58
2019-04-22T12:09:59.582Z,96935.17
2019-04-22T12:12:32.027Z,96905.87
2019-04-22T12:15:04.170Z,96897.94
2019-04-22T12:17:38.225Z,96913.13
2019-04-22T12:20:14.588Z,96899.81
2019-04-22T12:22:45.034Z,96896.60
2019-04-22T12:25:32.332Z,96891.87
2019-04-22T12:27:52.938Z,96895.25
2019-04-22T12:30:23.709Z,96897.16
2019-04-22T12:32:54.674Z,96885.92
2019-04-22T12:35:24.485Z,96881.67
2019-04-22T12:38:00.735Z,96880.42
2019-04-22T12:40:38.244Z,96873.45
2019-04-22T12:43:04.148Z,96865.82
2019-04-22T12:45:34.210Z,96879.47
2019-04-22T12:48:06.397Z,96866.85
2019-04-22T12:50:40.826Z,96856.13
2019-04-22T12:53:12.617Z,96851.53
2019-04-22T12:55:42.041Z,96845.88
2019-04-22T12:58:13.881Z,96838.64
2019-04-22T13:00:44.841Z,96847.24
2019-04-22T13:03:16.123Z,96832.36
2019-04-22T13:05:47.081Z,96830.16
2019-04-22T13:08:18.049Z,96827.34
2019-04-22T13:10:55.211Z,96827.97
2019-04-22T13:13:19.016Z,96821.55
2019-04-22T13:15:50.913Z,96819.16
2019-04-22T13:18:31.800Z,96808.52
2019-04-22T13:20:52.929Z,96798.74
2019-04-22T13:23:25.756Z,96807.99
2019-04-22T13:25:55.146Z,96804.38
2019-04-22T13:28:27.130Z,96814.81
2019-04-22T13:31:01.403Z,96800.40
2019-04-22T13:33:30.559Z,96795.70
2019-04-22T13:35:59.893Z,96784.41
2019-04-22T13:38:33.175Z,96773.83
2019-04-22T13:41:17.261Z,96785.16
2019-04-22T13:43:34.734Z,96793.68
2019-04-22T13:46:05.615Z,96771.75
2019-04-22T13:48:58.996Z,96768.94
2019-04-22T13:51:37.605Z,96765.62
2019-04-22T13:56:35.196Z,96762.34
2019-04-22T13:58:54.183Z,96756.53
2019-04-22T14:01:16.554Z,96767.02
2019-04-22T14:03:54.727Z,96763.16
2019-04-22T14:06:25.181Z,96753.91
2019-04-22T14:08:55.725Z,96747.89
2019-04-22T14:11:34.500Z,96746.25
2019-04-22T14:13:58.723Z,96747.23
2019-04-22T14:16:31.162Z,96739.67
2019-04-22T14:19:02.071Z,96720.06
2019-04-22T14:21:32.737Z,96730.83
2019-04-22T14:24:02.711Z,96727.83
2019-04-22T14:26:44.157Z,96727.65
2019-04-22T14:29:04.279Z,96731.50
2019-04-22T14:31:38.309Z,96726.40
2019-04-22T14:34:10.204Z,96721.67
2019-04-22T14:36:41.400Z,96729.07
2019-04-22T14:39:12.312Z,96710.25
2019-04-22T14:41:57.371Z,96715.23
2019-04-22T14:49:43.388Z,96680.65
2019-04-22T14:52:15.346Z,96694.00
2019-04-22T14:54:37.699Z,96692.55
2019-04-22T14:56:56.323Z,96694.31
2019-04-22T14:59:27.006Z,96680.06
2019-04-22T15:01:58.202Z,96695.22
2019-04-22T15:04:29.064Z,96677.58
2019-04-22T15:07:01.066Z,96673.30
2019-04-22T15:09:32.289Z,96684.43
2019-04-22T15:12:10.955Z,96679.03
2019-04-22T15:14:35.594Z,96694.98
2019-04-22T15:17:09.135Z,96676.20
2019-04-22T15:19:45.906Z,96682.14
2019-04-22T15:22:16.782Z,96684.47
2019-04-22T15:24:46.962Z,96688.44
2019-04-22T15:27:18.343Z,96676.77
2019-04-22T15:29:49.328Z,96679.09
2019-04-22T15:32:21.183Z,96670.21
2019-04-22T15:34:53.303Z,96674.08
2019-04-22T15:37:24.357Z,96674.91
2019-04-22T15:39:56.674Z,96656.79
2019-04-22T15:42:37.326Z,96671.34
2019-04-22T15:45:02.608Z,96659.62
2019-04-22T15:47:34.782Z,96658.70
2019-04-22T15:50:07.932Z,96655.45
2019-04-22T15:52:44.109Z,96648.53
2019-04-22T15:55:10.995Z,96650.81
2019-04-22T15:57:42.046Z,96646.07
2019-04-22T16:00:25.496Z,96658.52
2019-04-22T16:02:45.801Z,96652.48
2019-04-22T16:05:15.235Z,96640.75
2019-04-22T16:07:45.851Z,96625.41
2019-04-22T16:10:17.805Z,96639.08
2019-04-22T16:12:57.247Z,96640.05
2019-04-22T16:15:22.494Z,96644.42
2019-04-22T16:17:55.014Z,96637.76
2019-04-22T16:20:25.987Z,96621.72
2019-04-22T16:23:01.438Z,96636.42
2019-04-22T16:25:45.221Z,96627.99
2019-04-22T16:28:15.453Z,96655.27
2019-04-22T16:30:46.193Z,96631.52
2019-04-22T16:33:17.316Z,96628.13
2019-04-22T16:35:49.163Z,96633.00
2019-04-22T16:38:22.514Z,96622.92
2019-04-22T16:40:54.830Z,96616.23
2019-04-22T16:43:26.602Z,96617.56
2019-04-22T16:46:01.511Z,96617.03
2019-04-22T16:48:33.890Z,96617.41
2019-04-22T16:51:04.525Z,96603.31
2019-04-22T16:53:35.127Z,96615.38
2019-04-22T16:56:04.888Z,96615.66
2019-04-22T16:58:38.889Z,96615.91
2019-04-22T17:01:12.307Z,96615.91
2019-04-22T17:04:02.833Z,96613.92
2019-04-22T17:06:35.316Z,96613.85
2019-04-22T17:09:08.918Z,96615.91
2019-04-22T17:11:40.239Z,96636.28
2019-04-22T17:14:11.197Z,96626.56
2019-04-22T17:16:42.061Z,96631.12
2019-04-22T17:19:13.084Z,96611.95
2019-04-22T17:21:43.687Z,96639.67
2019-04-22T17:24:13.977Z,96619.11
2019-04-22T17:26:44.267Z,96620.28
2019-04-22T17:29:14.939Z,96626.24
2019-04-22T17:31:52.578Z,96618.77
2019-04-22T17:34:17.829Z,96624.83
2019-04-22T17:36:51.020Z,96617.03
2019-04-22T17:39:35.705Z,96616.55
2019-04-22T17:42:22.158Z,96622.95
2019-04-22T17:45:00.790Z,96625.63
2019-04-22T17:47:23.651Z,96627.30
2019-04-22T17:50:10.628Z,96627.04
2019-04-22T17:52:36.438Z,96638.36
2019-04-22T17:55:04.831Z,96637.02
2019-04-22T17:57:39.134Z,96637.73
2019-04-22T18:00:14.359Z,96619.88
2019-04-22T18:02:42.957Z,96639.28
2019-04-22T18:05:03.518Z,96636.70
2019-04-22T18:07:56.012Z,96638.58
2019-04-22T18:10:31.010Z,96644.83
2019-04-22T18:13:11.424Z,96641.27
2019-04-22T18:15:33.462Z,96645.55
2019-04-22T18:18:08.698Z,96646.61
2019-04-22T18:20:29.355Z,96649.06
2019-04-22T18:22:54.746Z,96655.50
2019-04-22T18:25:43.021Z,96651.62
2019-04-22T18:28:17.670Z,96652.18
2019-04-22T18:30:34.477Z,96654.13
2019-04-22T18:33:16.399Z,96650.92
2019-04-22T18:35:47.852Z,96656.70
2019-04-22T18:38:29.733Z,96664.02
2019-04-22T18:40:50.622Z,96661.16
2019-04-22T18:43:28.857Z,96667.05
2019-04-22T18:46:03.653Z,96670.16
2019-04-22T18:48:21.788Z,96660.09
2019-04-22T18:51:11.909Z,96669.75
2019-04-22T18:54:00.049Z,96667.23
2019-04-22T18:56:39.170Z,96666.87
2019-04-22T18:58:54.911Z,96669.12
2019-04-22T19:01:17.442Z,96670.69
2019-04-22T19:03:59.967Z,96674.55
2019-04-22T19:06:47.363Z,96678.78
2019-04-22T19:09:17.150Z,96676.91
2019-04-22T19:11:52.191Z,96678.50
2019-04-22T19:14:17.884Z,96687.42
2019-04-22T19:16:59.347Z,96680.92
2019-04-22T19:21:51.360Z,96684.81
2019-04-22T19:24:19.715Z,96679.08
2019-04-22T19:26:58.771Z,96689.99
2019-04-22T19:29:31.703Z,96685.67
2019-04-22T19:32:01.311Z,96692.27
2019-04-22T19:34:32.227Z,96672.44
2019-04-22T19:37:10.821Z,96677.98
2019-04-22T19:39:40.910Z,96683.50
2019-04-22T19:42:19.039Z,96683.08
2019-04-22T19:44:43.775Z,96687.55
2019-04-22T19:47:25.140Z,96686.84
2019-04-22T19:52:24.957Z,96688.41
2019-04-22T19:54:54.927Z,96696.27
2019-04-22T19:57:22.523Z,96697.93
2019-04-22T20:00:11.280Z,96687.68
2019-04-22T20:02:45.269Z,96687.61
2019-04-22T20:05:26.173Z,96692.16
2019-04-22T20:07:49.913Z,96679.92
2019-04-22T20:10:32.127Z,96686.12
2019-04-22T20:12:56.687Z,96691.75
2019-04-22T20:15:30.270Z,96690.73
2019-04-22T20:20:51.239Z,96690.23
2019-04-22T20:23:09.883Z,96686.64
2019-04-22T20:25:40.867Z,96680.70
2019-04-22T20:28:19.463Z,96683.59
2019-04-22T20:30:50.891Z,96672.69
2019-04-22T20:33:29.208Z,96677.28
2019-04-22T20:35:56.602Z,96666.81
2019-04-22T20:38:27.624Z,96667.69
2019-04-22T20:40:55.049Z,96669.09
2019-04-22T20:43:35.740Z,96665.23
2019-04-22T20:46:05.857Z,96662.25
2019-04-22T20:48:40.664Z,96665.03
2019-04-22T20:51:12.480Z,96662.73
2019-04-22T20:53:45.282Z,96668.49
2019-04-22T20:56:16.021Z,96668.44
2019-04-22T20:58:46.549Z,96656.83
2019-04-22T21:01:11.709Z,96657.34
2019-04-22T21:03:40.891Z,96659.93
2019-04-22T21:06:23.256Z,96662.92
2019-04-22T21:08:57.987Z,96656.36
2019-04-22T21:11:24.843Z,96655.15
2019-04-22T21:13:56.090Z,96652.33
2019-04-22T21:16:32.924Z,96653.72
2019-04-22T21:18:58.147Z,96641.05
2019-04-22T21:21:37.677Z,96647.52
2019-04-22T21:23:57.243Z,96644.01
2019-04-22T21:26:33.697Z,96641.73
2019-04-22T21:29:07.219Z,96637.17
2019-04-22T21:31:50.308Z,96631.70
2019-04-22T21:34:09.532Z,96633.10
2019-04-22T21:36:48.162Z,96627.26
2019-04-22T21:39:15.591Z,96619.94
2019-04-22T21:41:46.844Z,96617.47
2019-04-22T21:44:18.456Z,96614.34
2019-04-22T21:46:59.028Z,96607.93
2019-04-22T21:49:32.535Z,96611.11
2019-04-22T21:51:58.452Z,96600.65
2019-04-22T21:54:31.593Z,96601.08
2019-04-22T21:57:13.645Z,96597.28
2019-04-22T21:59:34.286Z,96594.72
2019-04-22T22:02:12.366Z,96592.61
2019-04-22T22:04:38.622Z,96589.49
2019-04-22T22:07:05.304Z,96586.72
2019-04-22T22:09:48.985Z,96582.21
2019-04-22T22:12:17.836Z,96590.45
2019-04-22T22:14:58.806Z,96586.20
2019-04-22T22:17:25.992Z,96580.14
2019-04-22T22:19:52.900Z,96575.70
2019-04-22T22:23:12.081Z,96572.13
2019-04-22T22:25:01.437Z,96569.67
2019-04-22T22:27:35.390Z,96565.95
2019-04-22T22:30:18.747Z,96563.98
2019-04-22T22:32:43.775Z,96553.80
2019-04-22T22:35:10.016Z,96551.61
2019-04-22T22:37:31.238Z,96541.21
2019-04-22T22:39:57.702Z,96537.47
2019-04-22T22:42:30.183Z,96533.86
2019-04-22T22:45:07.789Z,96534.98
2019-04-22T22:47:44.212Z,96531.42
2019-04-22T22:50:20.127Z,96531.35
2019-04-22T22:53:03.060Z,96525.20
2019-04-22T22:55:24.796Z,96514.63
2019-04-22T22:58:01.349Z,96513.97
2019-04-22T23:00:33.904Z,96515.84
2019-04-22T23:03:23.244Z,96512.92
2019-04-22T23:05:37.754Z,96510.33
2019-04-22T23:08:07.776Z,96508.16
2019-04-22T23:10:52.621Z,96507.12
2019-04-22T23:13:20.410Z,96500.22
2019-04-22T23:15:39.244Z,96503.09
2019-04-22T23:17:56.410Z,96496.55
2019-04-22T23:20:32.488Z,96499.70
2019-04-22T23:23:36.027Z,96502.06
2019-04-22T23:25:54.742Z,96499.91
2019-04-22T23:28:22.687Z,96495.05
2019-04-22T23:31:12.442Z,96491.19
2019-04-22T23:33:46.324Z,96489.42
2019-04-22T23:36:32.437Z,96481.58
2019-04-22T23:39:14.041Z,96482.81
2019-04-22T23:41:46.355Z,96479.34
2019-04-22T23:44:21.011Z,96479.90
2019-04-22T23:46:56.804Z,96472.23
2019-04-22T23:49:31.507Z,96473.55
2019-04-22T23:52:08.920Z,96467.95
2019-04-22T23:54:50.803Z,96466.56
2019-04-22T23:57:23.764Z,96449.86
2019-04-22T23:59:55.301Z,96446.63
